Time;durP1;ratioP1;P1;durP2;ratioP2;P2;SDS_P1;SDS_P2;PMS_P1;PMS_P2;Temp;Humidity;BMP_temperature;BMP_pressure;BME280_temperature;BME280_humidity;BME280_pressure;Samples;Min_cycle;Max_cycle;Signal;HPM_P1;HPM_P2
2023/04/17 00:00:08;;;;;;;53.03;31.13;;;12.20;99.90;;;;;;5132137;27;20023;-71
2023/04/17 00:02:38;;;;;;;49.75;30.33;;;12.30;99.90;;;;;;5133017;27;20696;-70
2023/04/17 00:05:05;;;;;;;55.13;31.17;;;12.30;99.90;;;;;;5130912;27;20034;-72
2023/04/17 00:07:33;;;;;;;52.25;31.08;;;12.30;99.90;;;;;;5133704;27;20038;-73
2023/04/17 00:09:58;;;;;;;55.83;32.65;;;12.30;99.90;;;;;;5132834;27;20023;-71
2023/04/17 00:12:24;;;;;;;58.42;33.33;;;12.40;99.90;;;;;;5131423;27;20444;-70
2023/04/17 00:14:52;;;;;;;51.28;29.13;;;12.30;99.90;;;;;;5133275;27;20034;-70
2023/04/17 00:17:18;;;;;;;50.78;30.13;;;12.30;99.90;;;;;;5132584;27;20019;-72
2023/04/17 00:19:43;;;;;;;45.13;29.35;;;12.30;99.90;;;;;;5133392;27;20042;-71
2023/04/17 00:22:09;;;;;;;51.85;30.52;;;12.20;99.90;;;;;;5131909;27;20015;-71
2023/04/17 00:24:35;;;;;;;47.35;30.65;;;12.10;99.90;;;;;;5133845;27;20035;-70
2023/04/17 00:27:01;;;;;;;46.47;30.10;;;12.20;99.90;;;;;;5133293;27;20027;-72
2023/04/17 00:29:26;;;;;;;53.40;30.23;;;12.20;99.90;;;;;;5131353;27;20482;-70
2023/04/17 00:31:52;;;;;;;52.55;28.45;;;12.20;99.90;;;;;;5133104;27;20026;-70
2023/04/17 00:34:18;;;;;;;42.00;28.15;;;12.20;99.90;;;;;;5133857;27;20026;-71
2023/04/17 00:36:43;;;;;;;47.05;29.45;;;12.10;99.90;;;;;;5133683;27;20528;-71
2023/04/17 00:39:09;;;;;;;48.20;27.58;;;12.10;99.90;;;;;;5133207;27;20027;-71
2023/04/17 00:41:34;;;;;;;44.63;26.67;;;12.10;99.90;;;;;;5131797;27;20027;-71
2023/04/17 00:44:00;;;;;;;46.35;27.17;;;12.20;99.90;;;;;;5132948;27;20027;-71
2023/04/17 00:46:26;;;;;;;45.00;26.63;;;12.20;99.90;;;;;;5133296;27;20494;-71
2023/04/17 00:48:52;;;;;;;41.85;26.67;;;12.20;99.90;;;;;;5132916;27;20037;-71
2023/04/17 00:51:17;;;;;;;43.85;25.98;;;12.20;99.90;;;;;;5133406;27;20019;-71
2023/04/17 00:53:44;;;;;;;40.05;24.63;;;12.20;99.90;;;;;;5133030;27;20027;-71
2023/04/17 00:56:10;;;;;;;42.50;26.25;;;12.30;99.90;;;;;;5132705;27;20034;-72
2023/04/17 00:58:36;;;;;;;44.78;27.20;;;12.20;99.90;;;;;;5132596;27;20475;-71
2023/04/17 01:01:04;;;;;;;40.65;26.52;;;12.30;99.90;;;;;;5132396;27;20023;-70
2023/04/17 01:03:31;;;;;;;47.15;26.40;;;12.30;99.90;;;;;;5133767;27;20494;-71
2023/04/17 01:05:56;;;;;;;44.70;27.10;;;12.20;99.90;;;;;;5133711;27;20031;-72
2023/04/17 01:08:22;;;;;;;40.90;27.23;;;12.20;99.90;;;;;;5133578;27;20042;-71
2023/04/17 01:10:48;;;;;;;41.15;25.95;;;12.20;99.90;;;;;;5133280;27;20387;-71
2023/04/17 01:13:13;;;;;;;39.17;25.42;;;12.20;99.90;;;;;;5132518;27;20027;-71
2023/04/17 01:15:39;;;;;;;51.67;28.88;;;12.20;99.90;;;;;;5132407;27;20123;-71
2023/04/17 01:18:05;;;;;;;43.85;27.60;;;12.20;99.90;;;;;;5133026;27;20494;-71
2023/04/17 01:20:31;;;;;;;47.15;28.90;;;12.20;99.90;;;;;;5133781;27;20030;-71
2023/04/17 01:22:58;;;;;;;45.55;27.67;;;12.20;99.90;;;;;;5133716;27;20012;-71
2023/04/17 01:25:25;;;;;;;46.70;28.92;;;12.20;99.90;;;;;;5133494;27;20027;-71
2023/04/17 01:27:50;;;;;;;43.10;27.48;;;12.20;99.90;;;;;;5132949;27;20026;-71
2023/04/17 01:30:16;;;;;;;43.38;25.80;;;12.20;99.90;;;;;;5132204;28;20030;-70
2023/04/17 01:32:42;;;;;;;47.22;26.80;;;12.20;99.90;;;;;;5131986;28;20023;-71
2023/04/17 01:35:09;;;;;;;48.30;27.10;;;12.30;99.90;;;;;;5133611;28;20039;-71
2023/04/17 01:37:34;;;;;;;47.30;27.23;;;12.20;99.90;;;;;;5133439;27;20108;-70
2023/04/17 01:40:00;;;;;;;45.47;27.63;;;12.20;99.90;;;;;;5133318;28;21430;-71
2023/04/17 01:42:26;;;;;;;45.65;27.30;;;12.20;99.90;;;;;;5133001;28;20023;-71
2023/04/17 01:44:51;;;;;;;47.90;28.20;;;12.20;99.90;;;;;;5131141;28;20027;-71
2023/04/17 01:47:17;;;;;;;44.25;26.77;;;12.20;99.90;;;;;;5133010;27;20031;-71
2023/04/17 01:49:43;;;;;;;42.47;26.58;;;12.20;99.90;;;;;;5133375;28;20091;-70
2023/04/17 01:52:08;;;;;;;44.42;28.40;;;12.20;99.90;;;;;;5132558;27;20053;-71
2023/04/17 01:54:34;;;;;;;43.13;27.67;;;12.20;99.90;;;;;;5132944;28;20047;-71
2023/04/17 01:57:00;;;;;;;41.70;26.15;;;12.20;99.90;;;;;;5132269;28;20036;-71
2023/04/17 01:59:25;;;;;;;42.97;27.08;;;12.20;99.90;;;;;;5131851;27;20372;-71
2023/04/17 02:01:52;;;;;;;41.83;27.02;;;12.20;99.90;;;;;;5131784;28;20147;-71
2023/04/17 02:04:17;;;;;;;47.58;29.88;;;12.20;99.90;;;;;;5132304;27;20467;-70
2023/04/17 02:06:43;;;;;;;43.88;28.90;;;12.20;99.90;;;;;;5133478;27;20080;-71
2023/04/17 02:09:09;;;;;;;44.75;28.67;;;12.10;99.90;;;;;;5137051;27;20384;-71
2023/04/17 02:11:34;;;;;;;42.58;26.52;;;12.20;99.90;;;;;;5135346;27;20024;-71
2023/04/17 02:14:00;;;;;;;44.20;27.33;;;12.20;99.90;;;;;;5136032;27;20498;-71
2023/04/17 02:16:27;;;;;;;44.90;26.95;;;12.20;99.90;;;;;;5137081;27;20026;-70
2023/04/17 02:18:53;;;;;;;43.17;27.73;;;12.20;99.90;;;;;;5134715;27;20057;-71
2023/04/17 02:21:19;;;;;;;42.50;26.83;;;12.20;99.90;;;;;;5136389;27;20027;-71
2023/04/17 02:23:44;;;;;;;43.53;27.63;;;12.20;99.90;;;;;;5135967;27;20375;-70
2023/04/17 02:26:10;;;;;;;41.47;26.58;;;12.20;99.90;;;;;;5136507;27;20030;-71
2023/04/17 02:28:36;;;;;;;44.13;27.23;;;12.20;99.90;;;;;;5136664;27;20031;-71
2023/04/17 02:31:05;;;;;;;46.20;27.42;;;12.20;99.90;;;;;;5134973;27;20023;-71
2023/04/17 02:33:31;;;;;;;41.67;25.27;;;12.10;99.90;;;;;;5135306;27;20026;-71
2023/04/17 02:35:56;;;;;;;44.55;26.77;;;12.20;99.90;;;;;;5136510;27;20026;-71
2023/04/17 02:38:22;;;;;;;45.10;26.27;;;12.10;99.90;;;;;;5136369;27;20023;-71
2023/04/17 02:40:47;;;;;;;44.47;28.00;;;12.10;99.90;;;;;;5135306;27;20062;-71
2023/04/17 02:43:13;;;;;;;41.97;25.88;;;12.10;99.90;;;;;;5136335;27;20056;-70
2023/04/17 02:45:39;;;;;;;46.72;27.38;;;12.00;99.90;;;;;;5136587;27;20027;-71
2023/04/17 02:48:05;;;;;;;41.65;25.02;;;12.00;99.90;;;;;;5134887;27;20038;-71
2023/04/17 02:50:30;;;;;;;45.45;27.83;;;11.90;99.90;;;;;;5136018;27;20539;-70
2023/04/17 02:52:56;;;;;;;49.03;27.67;;;11.90;99.90;;;;;;5136199;27;20129;-70
2023/04/17 02:55:23;;;;;;;46.28;26.20;;;12.00;99.90;;;;;;5135971;27;20055;-70
2023/04/17 02:57:48;;;;;;;43.17;26.75;;;12.00;99.90;;;;;;5135927;27;20047;-71
2023/04/17 03:00:14;;;;;;;47.58;27.20;;;12.00;99.90;;;;;;5134971;27;20082;-70
2023/04/17 03:02:40;;;;;;;45.72;28.48;;;12.00;99.90;;;;;;5136323;27;20096;-70
2023/04/17 03:05:06;;;;;;;46.88;28.42;;;12.00;99.90;;;;;;5134928;27;20376;-71
2023/04/17 03:07:32;;;;;;;45.15;29.08;;;12.00;99.90;;;;;;5134888;27;20021;-71
2023/04/17 03:09:58;;;;;;;48.00;28.83;;;11.90;99.90;;;;;;5135529;27;20076;-70
2023/04/17 03:12:24;;;;;;;42.13;26.55;;;11.90;99.90;;;;;;5135482;27;20047;-70
2023/04/17 03:14:50;;;;;;;39.65;25.20;;;11.90;99.90;;;;;;5135638;27;20102;-71
2023/04/17 03:17:16;;;;;;;47.85;28.50;;;11.80;99.90;;;;;;5133252;27;20051;-70
2023/04/17 03:19:42;;;;;;;46.78;28.65;;;11.80;99.90;;;;;;5133749;27;20019;-71
2023/04/17 03:22:07;;;;;;;44.85;28.77;;;11.90;99.90;;;;;;5135415;27;20379;-71
2023/04/17 03:24:33;;;;;;;46.70;27.85;;;11.80;99.90;;;;;;5134822;27;20379;-70
2023/04/17 03:26:59;;;;;;;53.85;30.17;;;11.70;99.90;;;;;;5134823;27;20027;-70
2023/04/17 03:29:25;;;;;;;51.22;29.80;;;11.70;99.90;;;;;;5135233;27;20089;-71
2023/04/17 03:31:51;;;;;;;47.65;28.40;;;11.80;99.90;;;;;;5135441;27;20050;-71
2023/04/17 03:34:17;;;;;;;53.05;31.73;;;11.70;99.90;;;;;;5134292;27;20375;-71
2023/04/17 03:36:43;;;;;;;48.25;29.40;;;11.80;99.90;;;;;;5135254;27;20027;-71
2023/04/17 03:39:09;;;;;;;54.83;30.42;;;11.80;99.90;;;;;;5135491;27;20026;-72
2023/04/17 03:41:37;;;;;;;52.63;30.85;;;11.80;99.90;;;;;;5135274;27;20042;-71
2023/04/17 03:44:07;;;;;;;55.05;29.17;;;11.80;99.90;;;;;;5134551;27;20015;-72
2023/04/17 03:46:33;;;;;;;49.17;30.15;;;11.80;99.90;;;;;;5135102;27;20467;-71
2023/04/17 03:48:59;;;;;;;50.90;30.05;;;11.80;99.90;;;;;;5134967;27;20035;-73
2023/04/17 03:51:26;;;;;;;50.85;30.65;;;11.70;99.90;;;;;;5134287;27;20102;-71
2023/04/17 03:53:52;;;;;;;54.15;29.70;;;11.80;99.90;;;;;;5133244;27;20502;-71
2023/04/17 03:56:17;;;;;;;49.55;29.85;;;11.80;99.90;;;;;;5134585;27;20021;-73
2023/04/17 03:58:43;;;;;;;52.80;30.05;;;11.80;99.90;;;;;;5133441;27;20433;-72
2023/04/17 04:01:13;;;;;;;52.83;30.17;;;11.70;99.90;;;;;;5133328;27;20024;-72
2023/04/17 04:03:39;;;;;;;56.17;29.83;;;11.70;99.90;;;;;;5134911;27;20489;-73
2023/04/17 04:06:06;;;;;;;53.45;30.77;;;11.70;99.90;;;;;;5133052;27;20026;-71
2023/04/17 04:08:32;;;;;;;56.85;31.65;;;11.70;99.90;;;;;;5134595;27;20052;-72
2023/04/17 04:10:59;;;;;;;52.42;31.08;;;11.70;99.90;;;;;;5133924;27;20091;-72
2023/04/17 04:13:25;;;;;;;53.88;31.30;;;11.70;99.90;;;;;;5133100;27;20109;-72
2023/04/17 04:15:51;;;;;;;54.70;29.80;;;11.70;99.90;;;;;;5133745;27;20479;-72
2023/04/17 04:18:16;;;;;;;55.22;33.53;;;11.60;99.90;;;;;;5134197;27;20019;-71
2023/04/17 04:20:42;;;;;;;54.33;31.45;;;11.60;99.90;;;;;;5133956;27;20417;-71
2023/04/17 04:23:08;;;;;;;56.58;31.60;;;11.60;99.90;;;;;;5133922;27;20102;-71
2023/04/17 04:25:35;;;;;;;54.22;30.70;;;11.70;99.90;;;;;;5134467;27;20538;-71
2023/04/17 04:28:01;;;;;;;54.80;31.08;;;11.70;99.90;;;;;;5134390;27;20038;-72
2023/04/17 04:30:29;;;;;;;58.40;31.95;;;11.60;99.90;;;;;;5133719;27;20026;-71
2023/04/17 04:32:55;;;;;;;65.35;34.33;;;11.60;99.90;;;;;;5134193;27;20085;-71
2023/04/17 04:35:24;;;;;;;57.70;32.10;;;11.60;99.90;;;;;;5133725;27;20111;-72
2023/04/17 04:37:53;;;;;;;62.70;33.60;;;11.50;99.90;;;;;;5134001;27;20031;-71
2023/04/17 04:40:20;;;;;;;58.20;34.17;;;11.50;99.90;;;;;;5133584;27;20038;-71
2023/04/17 04:42:48;;;;;;;64.88;35.15;;;11.50;99.90;;;;;;5134186;27;20050;-72
2023/04/17 04:45:14;;;;;;;67.60;36.75;;;11.50;99.90;;;;;;5134575;27;20100;-72
2023/04/17 04:47:40;;;;;;;69.28;35.95;;;11.40;99.90;;;;;;5133073;27;20532;-72
2023/04/17 04:50:07;;;;;;;59.30;32.47;;;11.40;99.90;;;;;;5134031;27;20037;-71
2023/04/17 04:52:33;;;;;;;69.00;34.85;;;11.40;99.90;;;;;;5133780;27;20019;-72
2023/04/17 04:54:59;;;;;;;67.60;35.80;;;11.50;99.90;;;;;;5134161;27;20092;-72
2023/04/17 04:57:25;;;;;;;65.03;36.03;;;11.50;99.90;;;;;;5131447;27;20019;-72
2023/04/17 04:59:51;;;;;;;67.10;37.53;;;11.50;99.90;;;;;;5132441;27;20028;-72
2023/04/17 05:02:17;;;;;;;67.32;35.60;;;11.50;99.90;;;;;;5133285;27;20023;-72
2023/04/17 05:04:42;;;;;;;70.20;36.70;;;11.50;99.90;;;;;;5132804;27;20057;-72
2023/04/17 05:07:08;;;;;;;68.75;35.85;;;11.50;99.90;;;;;;5133304;27;20015;-72
2023/04/17 05:09:34;;;;;;;62.60;33.75;;;11.40;99.90;;;;;;5133504;27;20475;-72
2023/04/17 05:12:00;;;;;;;63.97;35.63;;;11.50;99.90;;;;;;5132853;27;20028;-72
2023/04/17 05:14:26;;;;;;;63.22;35.97;;;11.50;99.90;;;;;;5131553;27;20172;-72
2023/04/17 05:16:52;;;;;;;63.25;34.13;;;11.40;99.90;;;;;;5131488;27;20106;-72
2023/04/17 05:19:17;;;;;;;64.18;35.80;;;11.40;99.90;;;;;;5132696;27;20639;-72
2023/04/17 05:21:43;;;;;;;67.47;35.95;;;11.40;99.90;;;;;;5132674;27;20054;-72
2023/04/17 05:24:09;;;;;;;57.50;33.45;;;11.40;99.90;;;;;;5132684;28;20376;-73
2023/04/17 05:26:34;;;;;;;64.70;36.03;;;11.40;99.90;;;;;;5133678;27;20030;-72
2023/04/17 05:29:00;;;;;;;63.65;33.78;;;11.40;99.90;;;;;;5132075;27;20130;-71
2023/04/17 05:31:26;;;;;;;64.93;35.28;;;11.40;99.90;;;;;;5132055;27;20490;-72
2023/04/17 05:33:52;;;;;;;66.28;35.28;;;11.40;99.90;;;;;;5133028;28;20053;-72
2023/04/17 05:36:17;;;;;;;65.55;35.00;;;11.40;99.90;;;;;;5132797;27;20019;-72
2023/04/17 05:38:43;;;;;;;65.05;36.20;;;11.40;99.90;;;;;;5132030;28;20027;-72
2023/04/17 05:41:09;;;;;;;61.03;34.97;;;11.40;99.90;;;;;;5132855;28;20027;-72
2023/04/17 05:43:34;;;;;;;69.75;36.85;;;11.30;99.90;;;;;;5136705;27;20098;-72
2023/04/17 05:46:01;;;;;;;61.63;33.75;;;11.20;99.90;;;;;;5137721;27;20027;-72
2023/04/17 05:48:27;;;;;;;68.53;36.35;;;11.30;99.90;;;;;;5136569;27;20035;-72
2023/04/17 05:50:53;;;;;;;69.32;36.85;;;11.30;99.90;;;;;;5137221;27;20023;-72
2023/04/17 05:53:18;;;;;;;72.80;37.20;;;11.20;99.90;;;;;;5136460;27;20433;-72
2023/04/17 05:55:44;;;;;;;65.50;33.97;;;11.30;99.90;;;;;;5135928;27;20057;-72
2023/04/17 05:58:10;;;;;;;66.28;35.20;;;11.40;99.90;;;;;;5136449;27;20027;-72
2023/04/17 06:00:36;;;;;;;67.10;35.75;;;11.30;99.90;;;;;;5136789;27;20118;-72
2023/04/17 06:03:01;;;;;;;71.97;36.75;;;11.40;99.90;;;;;;5135525;27;20023;-72
2023/04/17 06:05:27;;;;;;;73.97;38.47;;;11.30;99.90;;;;;;5135107;27;20072;-72
2023/04/17 06:07:53;;;;;;;73.15;37.95;;;11.40;99.90;;;;;;5134236;27;20391;-72
2023/04/17 06:10:19;;;;;;;78.57;39.35;;;11.40;99.90;;;;;;5134823;27;20561;-72
2023/04/17 06:12:44;;;;;;;79.60;39.78;;;11.40;99.90;;;;;;5136570;27;20912;-72
2023/04/17 06:15:10;;;;;;;81.93;40.60;;;11.40;99.90;;;;;;5130061;27;20077;-72
2023/04/17 06:17:37;;;;;;;84.75;41.38;;;11.40;99.90;;;;;;5122440;27;20366;-72
2023/04/17 06:20:10;;;;;;;82.07;42.20;;;11.40;99.90;;;;;;5121241;27;20126;-72
2023/04/17 06:22:37;;;;;;;77.55;40.25;;;11.50;99.90;;;;;;5119474;27;20026;-72
2023/04/17 06:25:03;;;;;;;70.07;36.92;;;11.50;99.90;;;;;;5127601;27;20031;-72
2023/04/17 06:27:29;;;;;;;71.28;37.38;;;11.50;99.90;;;;;;5132636;27;20019;-72
2023/04/17 06:29:54;;;;;;;77.40;37.97;;;11.50;99.90;;;;;;5134584;27;20030;-72
2023/04/17 06:32:20;;;;;;;75.72;39.17;;;11.50;99.90;;;;;;5125283;27;20498;-72
2023/04/17 06:34:46;;;;;;;71.15;38.17;;;11.50;99.90;;;;;;5126328;27;20473;-72
2023/04/17 06:37:11;;;;;;;78.05;39.47;;;11.40;99.90;;;;;;5123329;27;20486;-72
2023/04/17 06:39:37;;;;;;;80.03;40.28;;;11.40;99.90;;;;;;5128284;27;20073;-72
2023/04/17 06:42:05;;;;;;;76.35;38.70;;;11.50;99.90;;;;;;5124158;27;20034;-72
2023/04/17 06:44:30;;;;;;;77.22;37.88;;;11.60;99.90;;;;;;5122982;27;20015;-72
2023/04/17 06:46:57;;;;;;;86.55;41.38;;;11.60;99.90;;;;;;5121042;27;20027;-72
2023/04/17 06:49:23;;;;;;;81.93;42.90;;;11.70;99.90;;;;;;5128668;27;20039;-72
2023/04/17 06:51:50;;;;;;;77.60;39.40;;;11.70;99.90;;;;;;5122177;27;20100;-72
2023/04/17 06:54:16;;;;;;;74.63;38.70;;;11.70;99.90;;;;;;5121527;27;20028;-72
2023/04/17 06:56:41;;;;;;;79.60;40.78;;;11.60;99.90;;;;;;5127011;27;20027;-72
2023/04/17 06:59:08;;;;;;;77.80;40.72;;;11.70;99.90;;;;;;5124933;27;20098;-72
2023/04/17 07:01:34;;;;;;;76.30;40.00;;;11.70;99.90;;;;;;5126361;27;20031;-72
2023/04/17 07:04:01;;;;;;;81.40;40.33;;;11.70;99.90;;;;;;5124715;27;20027;-72
2023/04/17 07:06:27;;;;;;;83.47;41.38;;;11.70;99.90;;;;;;5124595;27;20028;-72
2023/04/17 07:08:53;;;;;;;77.97;39.50;;;11.80;99.90;;;;;;5125708;27;20031;-72
2023/04/17 07:11:18;;;;;;;78.25;39.55;;;11.80;99.90;;;;;;5121778;27;20468;-72
2023/04/17 07:13:44;;;;;;;78.32;39.05;;;11.80;99.90;;;;;;5126147;27;20452;-72
2023/04/17 07:16:10;;;;;;;66.15;37.47;;;11.90;99.90;;;;;;5121588;27;20023;-72
2023/04/17 07:18:35;;;;;;;72.65;39.13;;;11.90;99.90;;;;;;5120195;27;20106;-72
2023/04/17 07:21:01;;;;;;;71.28;38.83;;;11.90;99.90;;;;;;5127616;27;20023;-72
2023/04/17 07:23:27;;;;;;;74.38;39.35;;;11.80;99.90;;;;;;5121186;27;20035;-72
2023/04/17 07:25:53;;;;;;;66.30;37.88;;;11.90;99.90;;;;;;5125237;27;20052;-72
2023/04/17 07:28:18;;;;;;;71.68;37.85;;;11.90;99.90;;;;;;5127091;27;20049;-72
2023/04/17 07:30:44;;;;;;;70.82;36.55;;;12.00;99.90;;;;;;5125551;27;20031;-72
2023/04/17 07:33:10;;;;;;;68.20;36.88;;;12.00;99.90;;;;;;5124324;27;20076;-72
2023/04/17 07:35:36;;;;;;;62.70;35.33;;;12.00;99.90;;;;;;5125356;27;20385;-72
2023/04/17 07:38:03;;;;;;;63.22;34.28;;;11.90;99.90;;;;;;5123953;27;20027;-72
2023/04/17 07:40:29;;;;;;;56.80;33.88;;;11.80;99.90;;;;;;5124100;27;20059;-72
2023/04/17 07:42:55;;;;;;;57.28;32.72;;;11.90;99.90;;;;;;5133841;27;20035;-72
2023/04/17 07:45:22;;;;;;;57.10;33.83;;;11.90;99.90;;;;;;5119892;27;20418;-72
2023/04/17 07:47:49;;;;;;;53.25;32.80;;;11.80;99.90;;;;;;5105781;27;20087;-72
2023/04/17 07:50:15;;;;;;;54.63;33.28;;;11.90;99.90;;;;;;5121180;27;20062;-72
2023/04/17 07:52:41;;;;;;;55.75;32.85;;;12.00;99.90;;;;;;5126905;27;20055;-72
2023/04/17 07:55:07;;;;;;;50.78;31.65;;;12.00;99.90;;;;;;5122759;27;20019;-72
2023/04/17 07:57:33;;;;;;;51.70;31.48;;;12.00;99.90;;;;;;5126088;27;20083;-72
2023/04/17 07:59:59;;;;;;;46.85;29.55;;;12.10;99.90;;;;;;5128524;27;20031;-72
2023/04/17 08:02:25;;;;;;;50.25;31.98;;;12.10;99.90;;;;;;5126925;27;20094;-71
2023/04/17 08:04:53;;;;;;;48.78;31.75;;;12.20;99.90;;;;;;5123614;27;20031;-71
2023/04/17 08:07:19;;;;;;;49.38;32.30;;;12.30;99.90;;;;;;5123703;27;20053;-71
2023/04/17 08:09:46;;;;;;;52.40;31.58;;;12.30;99.90;;;;;;5125834;27;20936;-71
2023/04/17 08:12:11;;;;;;;48.58;31.83;;;12.30;99.90;;;;;;5124092;27;20024;-71
2023/04/17 08:14:38;;;;;;;49.67;30.35;;;12.30;99.90;;;;;;5126497;27;20489;-72
2023/04/17 08:17:06;;;;;;;49.42;29.90;;;12.30;99.90;;;;;;5124826;27;20359;-71
2023/04/17 08:19:31;;;;;;;50.20;30.50;;;12.30;99.90;;;;;;5127716;27;20026;-71
2023/04/17 08:22:03;;;;;;;47.65;29.98;;;12.30;99.90;;;;;;5126182;27;20092;-71
2023/04/17 08:24:30;;;;;;;48.97;30.42;;;12.20;99.90;;;;;;5125796;27;20544;-71
2023/04/17 08:26:56;;;;;;;46.60;28.60;;;12.10;99.90;;;;;;5128055;27;20024;-71
2023/04/17 08:29:22;;;;;;;43.85;27.75;;;12.20;99.90;;;;;;5120183;27;20032;-71
2023/04/17 08:31:48;;;;;;;47.03;28.98;;;12.30;99.90;;;;;;5125382;27;20024;-71
2023/04/17 08:34:13;;;;;;;48.78;30.83;;;12.30;99.90;;;;;;5124665;27;20490;-71
2023/04/17 08:36:39;;;;;;;46.42;29.38;;;12.40;99.90;;;;;;5120281;27;20114;-72
2023/04/17 08:39:05;;;;;;;45.42;28.50;;;12.40;99.90;;;;;;5125381;27;20019;-71
2023/04/17 08:41:38;;;;;;;44.58;28.77;;;12.40;99.90;;;;;;5122572;27;20031;-71
2023/04/17 08:44:04;;;;;;;48.97;29.80;;;12.50;99.90;;;;;;5125060;27;20054;-71
2023/04/17 08:46:30;;;;;;;46.67;28.77;;;12.50;99.90;;;;;;5123995;27;20026;-71
2023/04/17 08:48:56;;;;;;;47.58;29.45;;;12.40;99.90;;;;;;5124627;27;20030;-72
2023/04/17 08:51:26;;;;;;;48.05;28.67;;;12.50;99.90;;;;;;5122590;27;20027;-71
2023/04/17 08:53:53;;;;;;;48.33;27.58;;;12.60;99.90;;;;;;5127362;27;20053;-71
2023/04/17 08:56:18;;;;;;;46.15;29.05;;;12.40;99.90;;;;;;5119746;27;20246;-71
2023/04/17 08:58:44;;;;;;;48.25;29.92;;;12.50;99.90;;;;;;5125006;27;20042;-71
2023/04/17 09:01:14;;;;;;;45.22;28.38;;;12.50;99.90;;;;;;5114216;27;20031;-72
2023/04/17 09:03:41;;;;;;;46.85;28.55;;;12.50;99.90;;;;;;5125275;27;20031;-71
2023/04/17 09:06:09;;;;;;;47.78;29.92;;;12.70;99.90;;;;;;5122371;27;20058;-71
2023/04/17 09:08:36;;;;;;;45.72;28.52;;;12.60;99.90;;;;;;5120791;27;20079;-72
2023/04/17 09:11:01;;;;;;;49.97;31.08;;;12.60;99.90;;;;;;5126218;27;20035;-71
2023/04/17 09:13:29;;;;;;;45.92;29.05;;;12.60;99.90;;;;;;5122422;27;20019;-70
2023/04/17 09:16:06;;;;;;;52.70;28.58;;;12.70;99.90;;;;;;5125377;27;20019;-71
2023/04/17 09:18:33;;;;;;;46.45;30.23;;;12.60;99.90;;;;;;5118067;27;20015;-71
2023/04/17 09:21:03;;;;;;;45.00;28.25;;;12.50;99.90;;;;;;5124219;27;20467;-71
2023/04/17 09:23:44;;;;;;;45.72;27.48;;;12.80;99.90;;;;;;5125887;27;20043;-73
2023/04/17 09:26:12;;;;;;;43.00;29.08;;;12.90;99.90;;;;;;5120626;27;20030;-71
2023/04/17 09:28:39;;;;;;;49.53;28.83;;;13.10;99.90;;;;;;5125732;27;20027;-71
2023/04/17 09:31:26;;;;;;;50.85;28.80;;;13.40;99.90;;;;;;5123057;27;20050;-72
2023/04/17 09:34:01;;;;;;;40.65;27.55;;;13.60;99.90;;;;;;5123236;28;20030;-71
2023/04/17 09:36:32;;;;;;;42.38;29.02;;;13.60;99.90;;;;;;5123161;28;20052;-73
2023/04/17 09:38:59;;;;;;;45.17;27.10;;;13.40;99.90;;;;;;5124412;27;20047;-69
2023/04/17 09:41:30;;;;;;;44.15;26.42;;;13.60;99.90;;;;;;5126355;27;20480;-72
2023/04/17 09:44:04;;;;;;;44.80;28.35;;;13.70;99.90;;;;;;5126742;27;20072;-73
2023/04/17 09:46:47;;;;;;;43.17;27.38;;;13.80;99.90;;;;;;5125392;27;20143;-70
2023/04/17 09:49:22;;;;;;;46.72;30.08;;;14.00;99.90;;;;;;5125904;28;20501;-70
2023/04/17 09:51:49;;;;;;;43.30;27.48;;;13.80;99.90;;;;;;5123460;27;20034;-71
2023/04/17 09:54:16;;;;;;;46.65;28.63;;;13.80;99.90;;;;;;5126422;27;20475;-70
2023/04/17 09:56:42;;;;;;;45.85;28.48;;;13.70;99.90;;;;;;5125710;28;20031;-71
2023/04/17 09:59:08;;;;;;;49.22;29.80;;;13.70;99.90;;;;;;5125397;27;20025;-71
2023/04/17 10:01:36;;;;;;;43.20;27.15;;;13.80;99.90;;;;;;5127168;27;20098;-71
2023/04/17 10:04:03;;;;;;;45.20;28.20;;;13.70;99.90;;;;;;5125870;27;20024;-71
2023/04/17 10:06:30;;;;;;;52.83;29.67;;;13.70;99.90;;;;;;5128173;27;20043;-72
2023/04/17 10:08:56;;;;;;;43.95;27.35;;;13.70;99.90;;;;;;5126326;27;20104;-71
2023/04/17 10:11:24;;;;;;;47.78;28.98;;;13.80;99.90;;;;;;5125928;27;20453;-71
2023/04/17 10:14:10;;;;;;;46.05;26.98;;;13.90;99.90;;;;;;5125448;28;20054;-71
2023/04/17 10:16:37;;;;;;;48.42;28.20;;;13.80;99.90;;;;;;5126158;28;20055;-73
2023/04/17 10:19:26;;;;;;;44.92;27.95;;;14.00;99.90;;;;;;5125318;28;20027;-70
2023/04/17 10:22:17;;;;;;;43.78;28.27;;;14.20;99.90;;;;;;5127734;28;20019;-70
2023/04/17 10:24:46;;;;;;;50.15;30.05;;;14.40;99.90;;;;;;5127200;28;20344;-72
2023/04/17 10:27:23;;;;;;;46.05;28.38;;;14.40;99.90;;;;;;5126824;27;20035;-71
2023/04/17 10:29:57;;;;;;;41.28;26.80;;;14.20;99.90;;;;;;5128158;27;20095;-71
2023/04/17 10:32:26;;;;;;;49.35;30.50;;;14.00;99.90;;;;;;5129232;27;20106;-71
2023/04/17 10:35:12;;;;;;;45.97;27.42;;;13.80;99.90;;;;;;5129519;27;20034;-71
2023/04/17 10:37:48;;;;;;;46.13;28.58;;;13.90;99.90;;;;;;5122592;27;20031;-70
2023/04/17 10:40:22;;;;;;;45.97;29.35;;;14.10;99.90;;;;;;5127082;27;20554;-71
2023/04/17 10:43:19;;;;;;;44.92;28.92;;;14.40;99.90;;;;;;5129848;27;20106;-70
2023/04/17 10:46:10;;;;;;;49.97;30.85;;;14.50;99.90;;;;;;5129992;27;20553;-71
2023/04/17 10:48:53;;;;;;;48.88;29.92;;;14.50;99.90;;;;;;5129298;27;20019;-70
2023/04/17 10:54:02;;;;;;;45.78;29.75;;;14.60;99.90;;;;;;5130826;27;20023;-71
2023/04/17 10:56:37;;;;;;;46.42;30.52;;;14.70;99.90;;;;;;5130958;27;20464;-72
2023/04/17 10:59:05;;;;;;;44.33;29.52;;;14.80;99.90;;;;;;5130315;27;20053;-70
2023/04/17 11:01:51;;;;;;;45.22;29.58;;;14.90;99.90;;;;;;5129680;27;20054;-72
2023/04/17 11:04:29;;;;;;;44.05;27.55;;;15.00;99.90;;;;;;5128222;27;20023;-72
2023/04/17 11:06:55;;;;;;;46.53;29.30;;;14.80;99.90;;;;;;5128735;27;20603;-72
2023/04/17 11:09:23;;;;;;;46.53;28.30;;;15.00;99.90;;;;;;5130184;27;20035;-71
2023/04/17 11:11:49;;;;;;;43.63;29.25;;;15.20;99.90;;;;;;5130014;27;20023;-72
2023/04/17 11:14:17;;;;;;;44.10;28.60;;;15.20;99.90;;;;;;5128946;27;20027;-70
2023/04/17 11:16:45;;;;;;;47.40;29.67;;;15.10;99.90;;;;;;5124918;27;20072;-71
2023/04/17 11:19:18;;;;;;;47.22;30.17;;;15.10;99.90;;;;;;5126994;27;20027;-70
2023/04/17 11:21:46;;;;;;;50.85;31.30;;;15.10;99.90;;;;;;5128573;27;20019;-71
2023/04/17 11:24:11;;;;;;;44.47;28.50;;;15.20;99.90;;;;;;5130858;27;20538;-70
2023/04/17 11:26:47;;;;;;;44.55;29.10;;;15.20;99.90;;;;;;5125416;27;20093;-69
2023/04/17 11:29:17;;;;;;;47.35;30.35;;;15.30;99.90;;;;;;5128139;27;20039;-70
2023/04/17 11:31:50;;;;;;;42.92;28.58;;;15.40;99.90;;;;;;5128488;27;20023;-71
2023/04/17 11:34:16;;;;;;;44.88;28.70;;;15.40;99.90;;;;;;5129840;27;20035;-70
2023/04/17 11:36:56;;;;;;;43.00;27.52;;;15.50;99.90;;;;;;5127854;27;20019;-72
2023/04/17 11:39:32;;;;;;;38.78;26.58;;;15.60;99.90;;;;;;5129024;27;20110;-71
2023/04/17 11:41:59;;;;;;;40.13;27.45;;;15.50;99.90;;;;;;5129317;27;20024;-71
2023/04/17 11:44:25;;;;;;;32.53;24.27;;;15.40;99.90;;;;;;5130179;27;20379;-72
2023/04/17 11:47:00;;;;;;;34.55;23.02;;;15.40;99.90;;;;;;5129642;27;20596;-71
2023/04/17 11:49:26;;;;;;;32.88;24.33;;;15.30;99.90;;;;;;5129424;27;20112;-72
2023/04/17 11:51:53;;;;;;;36.75;25.20;;;15.20;99.90;;;;;;5128052;27;20471;-72
2023/04/17 11:54:28;;;;;;;35.55;23.90;;;15.40;99.90;;;;;;5129057;27;20024;-71
2023/04/17 11:57:13;;;;;;;35.42;23.35;;;15.50;99.90;;;;;;5129773;27;20360;-72
2023/04/17 11:59:44;;;;;;;38.03;25.50;;;15.80;99.90;;;;;;5129285;27;22439;-72
2023/04/17 12:02:11;;;;;;;37.13;24.90;;;15.80;99.90;;;;;;5127166;27;20927;-71
2023/04/17 12:04:38;;;;;;;37.22;24.77;;;15.70;99.90;;;;;;5129669;27;20023;-72
2023/04/17 12:07:06;;;;;;;39.38;25.35;;;15.70;99.90;;;;;;5129097;27;20056;-71
2023/04/17 12:09:33;;;;;;;36.55;26.30;;;15.60;99.90;;;;;;5126257;27;20027;-71
2023/04/17 12:12:02;;;;;;;40.08;25.85;;;15.70;99.90;;;;;;5128956;27;20023;-72
2023/04/17 12:14:28;;;;;;;33.88;22.73;;;16.00;99.90;;;;;;5128447;27;20069;-71
2023/04/17 12:16:53;;;;;;;30.02;20.80;;;16.10;99.90;;;;;;5129480;27;20061;-71
2023/04/17 12:19:20;;;;;;;30.60;20.98;;;16.10;99.90;;;;;;5128369;27;20060;-71
2023/04/17 12:21:48;;;;;;;29.52;20.88;;;16.10;99.90;;;;;;5129217;27;20034;-72
2023/04/17 12:24:16;;;;;;;31.45;21.65;;;16.00;99.90;;;;;;5128658;27;20499;-72
2023/04/17 12:26:46;;;;;;;28.25;22.05;;;16.20;99.90;;;;;;5128777;27;20063;-71
2023/04/17 12:29:13;;;;;;;28.33;19.83;;;16.20;99.90;;;;;;5126447;27;20380;-72
2023/04/17 12:31:38;;;;;;;25.95;18.67;;;16.20;99.90;;;;;;5128240;27;20098;-72